sensor_id;sensor_type;location;lat;lon;timestamp;P1;durP1;ratioP1;P2;durP2;ratioP2
54502;SDS011;40411;50.090;21.954;2022-07-23T00:01:38;17.17;;;13.07;;
54502;SDS011;40411;50.090;21.954;2022-07-23T00:04:04;18.23;;;12.52;;
54502;SDS011;40411;50.090;21.954;2022-07-23T00:06:30;19.77;;;14.02;;
54502;SDS011;40411;50.090;21.954;2022-07-23T00:08:55;23.58;;;13.95;;
54502;SDS011;40411;50.090;21.954;2022-07-23T00:11:21;25.23;;;14.32;;
54502;SDS011;40411;50.090;21.954;2022-07-23T00:13:47;20.60;;;13.55;;
54502;SDS011;40411;50.090;21.954;2022-07-23T00:16:14;24.63;;;14.40;;
54502;SDS011;40411;50.090;21.954;2022-07-23T00:18:39;22.40;;;14.93;;
54502;SDS011;40411;50.090;21.954;2022-07-23T00:21:06;31.67;;;14.70;;
54502;SDS011;40411;50.090;21.954;2022-07-23T00:23:32;26.83;;;15.30;;
54502;SDS011;40411;50.090;21.954;2022-07-23T00:25:58;21.50;;;14.02;;
54502;SDS011;40411;50.090;21.954;2022-07-23T00:28:24;20.90;;;14.32;;
54502;SDS011;40411;50.090;21.954;2022-07-23T00:30:50;22.17;;;14.00;;
54502;SDS011;40411;50.090;21.954;2022-07-23T00:33:16;17.88;;;13.70;;
54502;SDS011;40411;50.090;21.954;2022-07-23T00:35:42;22.95;;;14.07;;
54502;SDS011;40411;50.090;21.954;2022-07-23T00:38:08;21.58;;;13.98;;
54502;SDS011;40411;50.090;21.954;2022-07-23T00:40:35;18.73;;;13.30;;
54502;SDS011;40411;50.090;21.954;2022-07-23T00:43:02;23.65;;;14.27;;
54502;SDS011;40411;50.090;21.954;2022-07-23T00:45:29;17.70;;;14.13;;
54502;SDS011;40411;50.090;21.954;2022-07-23T00:47:55;30.88;;;14.43;;
54502;SDS011;40411;50.090;21.954;2022-07-23T00:50:21;21.92;;;15.10;;
54502;SDS011;40411;50.090;21.954;2022-07-23T00:52:47;20.58;;;14.18;;
54502;SDS011;40411;50.090;21.954;2022-07-23T00:55:14;23.75;;;13.65;;
54502;SDS011;40411;50.090;21.954;2022-07-23T00:57:40;23.95;;;14.20;;
54502;SDS011;40411;50.090;21.954;2022-07-23T01:00:08;20.88;;;13.82;;
54502;SDS011;40411;50.090;21.954;2022-07-23T01:02:37;21.70;;;14.80;;
54502;SDS011;40411;50.090;21.954;2022-07-23T01:05:03;24.85;;;13.93;;
54502;SDS011;40411;50.090;21.954;2022-07-23T01:07:29;22.17;;;14.05;;
54502;SDS011;40411;50.090;21.954;2022-07-23T01:09:56;23.85;;;14.70;;
54502;SDS011;40411;50.090;21.954;2022-07-23T01:12:23;21.13;;;14.88;;
54502;SDS011;40411;50.090;21.954;2022-07-23T01:14:53;26.58;;;15.02;;
54502;SDS011;40411;50.090;21.954;2022-07-23T01:17:22;21.92;;;14.40;;
54502;SDS011;40411;50.090;21.954;2022-07-23T01:19:48;23.48;;;14.27;;
54502;SDS011;40411;50.090;21.954;2022-07-23T01:22:15;22.25;;;14.93;;
54502;SDS011;40411;50.090;21.954;2022-07-23T01:24:44;21.25;;;13.88;;
54502;SDS011;40411;50.090;21.954;2022-07-23T01:27:11;18.13;;;13.95;;
54502;SDS011;40411;50.090;21.954;2022-07-23T01:29:38;22.55;;;14.35;;
54502;SDS011;40411;50.090;21.954;2022-07-23T01:32:16;19.73;;;13.88;;
54502;SDS011;40411;50.090;21.954;2022-07-23T01:34:42;19.75;;;14.63;;
54502;SDS011;40411;50.090;21.954;2022-07-23T01:37:08;24.48;;;14.35;;
54502;SDS011;40411;50.090;21.954;2022-07-23T01:39:34;24.38;;;15.65;;
54502;SDS011;40411;50.090;21.954;2022-07-23T01:42:00;21.73;;;14.38;;
54502;SDS011;40411;50.090;21.954;2022-07-23T01:44:26;23.65;;;14.80;;
54502;SDS011;40411;50.090;21.954;2022-07-23T01:46:53;20.00;;;14.02;;
54502;SDS011;40411;50.090;21.954;2022-07-23T01:49:20;22.92;;;14.73;;
54502;SDS011;40411;50.090;21.954;2022-07-23T01:51:55;21.33;;;15.15;;
54502;SDS011;40411;50.090;21.954;2022-07-23T01:54:45;23.98;;;14.35;;
54502;SDS011;40411;50.090;21.954;2022-07-23T01:57:11;23.63;;;15.13;;
54502;SDS011;40411;50.090;21.954;2022-07-23T01:59:37;23.13;;;14.90;;
54502;SDS011;40411;50.090;21.954;2022-07-23T02:02:05;21.92;;;15.13;;
54502;SDS011;40411;50.090;21.954;2022-07-23T02:04:32;24.88;;;14.80;;
54502;SDS011;40411;50.090;21.954;2022-07-23T02:07:02;22.38;;;14.95;;
54502;SDS011;40411;50.090;21.954;2022-07-23T02:09:29;19.15;;;14.70;;
54502;SDS011;40411;50.090;21.954;2022-07-23T02:11:55;22.52;;;15.65;;
54502;SDS011;40411;50.090;21.954;2022-07-23T02:14:21;21.88;;;14.52;;
54502;SDS011;40411;50.090;21.954;2022-07-23T02:16:47;22.02;;;14.70;;
54502;SDS011;40411;50.090;21.954;2022-07-23T02:19:14;20.10;;;14.52;;
54502;SDS011;40411;50.090;21.954;2022-07-23T02:21:40;19.20;;;14.73;;
54502;SDS011;40411;50.090;21.954;2022-07-23T02:24:06;27.33;;;15.10;;
54502;SDS011;40411;50.090;21.954;2022-07-23T02:26:32;22.73;;;14.60;;
54502;SDS011;40411;50.090;21.954;2022-07-23T02:29:02;25.95;;;14.55;;
54502;SDS011;40411;50.090;21.954;2022-07-23T02:31:28;21.80;;;14.43;;
54502;SDS011;40411;50.090;21.954;2022-07-23T02:33:56;23.63;;;14.68;;
54502;SDS011;40411;50.090;21.954;2022-07-23T02:36:23;28.65;;;15.50;;
54502;SDS011;40411;50.090;21.954;2022-07-23T02:38:51;22.63;;;14.68;;
54502;SDS011;40411;50.090;21.954;2022-07-23T02:41:17;26.08;;;14.68;;
54502;SDS011;40411;50.090;21.954;2022-07-23T02:43:43;25.98;;;14.85;;
54502;SDS011;40411;50.090;21.954;2022-07-23T02:46:11;20.52;;;14.48;;
54502;SDS011;40411;50.090;21.954;2022-07-23T02:48:37;18.83;;;14.15;;
54502;SDS011;40411;50.090;21.954;2022-07-23T02:51:03;23.40;;;15.18;;
54502;SDS011;40411;50.090;21.954;2022-07-23T02:53:36;20.83;;;15.10;;
54502;SDS011;40411;50.090;21.954;2022-07-23T02:56:02;23.10;;;16.27;;
54502;SDS011;40411;50.090;21.954;2022-07-23T02:58:28;25.58;;;14.88;;
54502;SDS011;40411;50.090;21.954;2022-07-23T03:00:54;24.73;;;14.93;;
54502;SDS011;40411;50.090;21.954;2022-07-23T03:03:20;21.60;;;16.05;;
54502;SDS011;40411;50.090;21.954;2022-07-23T03:05:46;23.75;;;16.10;;
54502;SDS011;40411;50.090;21.954;2022-07-23T03:08:12;24.15;;;15.68;;
54502;SDS011;40411;50.090;21.954;2022-07-23T03:10:41;24.13;;;16.08;;
54502;SDS011;40411;50.090;21.954;2022-07-23T03:13:07;21.17;;;15.15;;
54502;SDS011;40411;50.090;21.954;2022-07-23T03:15:33;20.75;;;15.68;;
54502;SDS011;40411;50.090;21.954;2022-07-23T03:17:59;21.98;;;15.57;;
54502;SDS011;40411;50.090;21.954;2022-07-23T03:20:25;21.27;;;15.80;;
54502;SDS011;40411;50.090;21.954;2022-07-23T03:22:52;24.45;;;15.77;;
54502;SDS011;40411;50.090;21.954;2022-07-23T03:25:18;24.70;;;15.57;;
54502;SDS011;40411;50.090;21.954;2022-07-23T03:27:44;18.95;;;15.07;;
54502;SDS011;40411;50.090;21.954;2022-07-23T03:30:10;26.55;;;16.33;;
54502;SDS011;40411;50.090;21.954;2022-07-23T03:32:37;20.60;;;14.80;;
54502;SDS011;40411;50.090;21.954;2022-07-23T03:35:03;22.67;;;15.18;;
54502;SDS011;40411;50.090;21.954;2022-07-23T03:37:31;41.80;;;15.05;;
54502;SDS011;40411;50.090;21.954;2022-07-23T03:39:58;25.23;;;14.57;;
54502;SDS011;40411;50.090;21.954;2022-07-23T03:42:24;21.50;;;14.35;;
54502;SDS011;40411;50.090;21.954;2022-07-23T03:44:50;23.05;;;15.35;;
54502;SDS011;40411;50.090;21.954;2022-07-23T03:47:16;21.40;;;13.82;;
54502;SDS011;40411;50.090;21.954;2022-07-23T03:49:43;18.17;;;14.77;;
54502;SDS011;40411;50.090;21.954;2022-07-23T03:52:09;20.60;;;13.90;;
54502;SDS011;40411;50.090;21.954;2022-07-23T03:54:35;25.05;;;14.77;;
54502;SDS011;40411;50.090;21.954;2022-07-23T03:57:01;26.38;;;14.20;;
54502;SDS011;40411;50.090;21.954;2022-07-23T03:59:28;21.77;;;14.35;;
54502;SDS011;40411;50.090;21.954;2022-07-23T04:01:54;27.60;;;13.70;;
54502;SDS011;40411;50.090;21.954;2022-07-23T04:04:19;25.80;;;14.63;;
54502;SDS011;40411;50.090;21.954;2022-07-23T04:06:45;17.65;;;14.05;;
54502;SDS011;40411;50.090;21.954;2022-07-23T04:09:12;19.35;;;12.32;;
54502;SDS011;40411;50.090;21.954;2022-07-23T04:11:37;19.05;;;13.20;;
54502;SDS011;40411;50.090;21.954;2022-07-23T04:14:03;15.02;;;12.43;;
54502;SDS011;40411;50.090;21.954;2022-07-23T04:16:30;22.10;;;13.23;;
54502;SDS011;40411;50.090;21.954;2022-07-23T04:18:59;20.67;;;13.00;;
54502;SDS011;40411;50.090;21.954;2022-07-23T04:21:28;20.40;;;13.55;;
54502;SDS011;40411;50.090;21.954;2022-07-23T04:23:54;22.42;;;13.13;;
54502;SDS011;40411;50.090;21.954;2022-07-23T04:26:20;17.95;;;11.98;;
54502;SDS011;40411;50.090;21.954;2022-07-23T04:28:46;18.33;;;12.55;;
54502;SDS011;40411;50.090;21.954;2022-07-23T04:31:13;15.48;;;11.32;;
54502;SDS011;40411;50.090;21.954;2022-07-23T04:33:39;18.73;;;10.60;;
54502;SDS011;40411;50.090;21.954;2022-07-23T04:36:06;14.63;;;9.52;;
54502;SDS011;40411;50.090;21.954;2022-07-23T04:38:32;21.40;;;11.88;;
54502;SDS011;40411;50.090;21.954;2022-07-23T04:41:01;19.17;;;11.30;;
54502;SDS011;40411;50.090;21.954;2022-07-23T04:43:27;15.55;;;9.95;;
54502;SDS011;40411;50.090;21.954;2022-07-23T04:45:54;21.73;;;10.55;;
54502;SDS011;40411;50.090;21.954;2022-07-23T04:48:19;17.38;;;10.55;;
54502;SDS011;40411;50.090;21.954;2022-07-23T04:50:48;19.42;;;9.88;;
54502;SDS011;40411;50.090;21.954;2022-07-23T04:53:17;14.45;;;10.57;;
54502;SDS011;40411;50.090;21.954;2022-07-23T04:55:46;17.27;;;9.55;;
54502;SDS011;40411;50.090;21.954;2022-07-23T04:58:12;16.60;;;9.80;;
54502;SDS011;40411;50.090;21.954;2022-07-23T05:00:38;12.95;;;8.93;;
54502;SDS011;40411;50.090;21.954;2022-07-23T05:03:04;15.77;;;10.00;;
54502;SDS011;40411;50.090;21.954;2022-07-23T05:05:31;17.27;;;9.57;;
54502;SDS011;40411;50.090;21.954;2022-07-23T05:08:05;13.68;;;9.32;;
54502;SDS011;40411;50.090;21.954;2022-07-23T05:10:35;13.85;;;8.88;;
54502;SDS011;40411;50.090;21.954;2022-07-23T05:13:01;17.65;;;8.60;;
54502;SDS011;40411;50.090;21.954;2022-07-23T05:15:27;18.65;;;8.93;;
54502;SDS011;40411;50.090;21.954;2022-07-23T05:17:53;14.85;;;9.10;;
54502;SDS011;40411;50.090;21.954;2022-07-23T05:20:19;14.75;;;8.75;;
54502;SDS011;40411;50.090;21.954;2022-07-23T05:22:46;14.35;;;8.77;;
54502;SDS011;40411;50.090;21.954;2022-07-23T05:25:12;14.25;;;8.43;;
54502;SDS011;40411;50.090;21.954;2022-07-23T05:27:37;12.95;;;8.85;;
54502;SDS011;40411;50.090;21.954;2022-07-23T05:30:04;12.45;;;8.93;;
54502;SDS011;40411;50.090;21.954;2022-07-23T05:32:33;13.98;;;8.20;;
54502;SDS011;40411;50.090;21.954;2022-07-23T05:35:07;16.58;;;8.50;;
54502;SDS011;40411;50.090;21.954;2022-07-23T05:37:38;19.25;;;9.35;;
54502;SDS011;40411;50.090;21.954;2022-07-23T05:40:08;14.48;;;8.63;;
54502;SDS011;40411;50.090;21.954;2022-07-23T05:42:36;14.65;;;9.50;;
54502;SDS011;40411;50.090;21.954;2022-07-23T05:45:05;14.63;;;9.10;;
54502;SDS011;40411;50.090;21.954;2022-07-23T05:47:45;12.82;;;8.85;;
54502;SDS011;40411;50.090;21.954;2022-07-23T05:50:17;14.98;;;8.90;;
54502;SDS011;40411;50.090;21.954;2022-07-23T05:52:47;18.25;;;9.50;;
54502;SDS011;40411;50.090;21.954;2022-07-23T05:55:36;17.63;;;9.00;;
54502;SDS011;40411;50.090;21.954;2022-07-23T05:58:01;14.25;;;9.55;;
54502;SDS011;40411;50.090;21.954;2022-07-23T06:00:28;17.60;;;10.05;;
54502;SDS011;40411;50.090;21.954;2022-07-23T06:02:55;16.42;;;9.70;;
54502;SDS011;40411;50.090;21.954;2022-07-23T06:05:21;17.00;;;9.80;;
54502;SDS011;40411;50.090;21.954;2022-07-23T06:07:47;18.25;;;10.07;;
54502;SDS011;40411;50.090;21.954;2022-07-23T06:10:14;20.20;;;9.75;;
54502;SDS011;40411;50.090;21.954;2022-07-23T06:12:40;19.13;;;9.52;;
54502;SDS011;40411;50.090;21.954;2022-07-23T06:15:07;18.05;;;9.35;;
54502;SDS011;40411;50.090;21.954;2022-07-23T06:17:34;14.95;;;9.23;;
54502;SDS011;40411;50.090;21.954;2022-07-23T06:20:02;17.42;;;9.82;;
54502;SDS011;40411;50.090;21.954;2022-07-23T06:22:28;18.50;;;9.43;;
54502;SDS011;40411;50.090;21.954;2022-07-23T06:24:54;18.10;;;10.02;;
54502;SDS011;40411;50.090;21.954;2022-07-23T06:27:20;15.15;;;10.02;;
54502;SDS011;40411;50.090;21.954;2022-07-23T06:29:46;15.32;;;9.90;;
54502;SDS011;40411;50.090;21.954;2022-07-23T06:32:12;13.75;;;9.40;;
54502;SDS011;40411;50.090;21.954;2022-07-23T06:34:38;16.52;;;9.75;;
54502;SDS011;40411;50.090;21.954;2022-07-23T06:37:04;19.52;;;9.45;;
54502;SDS011;40411;50.090;21.954;2022-07-23T06:39:29;16.75;;;9.75;;
54502;SDS011;40411;50.090;21.954;2022-07-23T06:41:57;17.08;;;10.25;;
54502;SDS011;40411;50.090;21.954;2022-07-23T06:44:35;14.85;;;10.27;;
54502;SDS011;40411;50.090;21.954;2022-07-23T06:47:01;17.45;;;9.75;;
54502;SDS011;40411;50.090;21.954;2022-07-23T06:49:27;18.60;;;10.55;;
54502;SDS011;40411;50.090;21.954;2022-07-23T06:51:56;14.00;;;9.63;;
54502;SDS011;40411;50.090;21.954;2022-07-23T06:54:23;13.57;;;9.82;;
54502;SDS011;40411;50.090;21.954;2022-07-23T06:56:49;17.33;;;9.52;;
54502;SDS011;40411;50.090;21.954;2022-07-23T06:59:15;15.95;;;9.45;;
54502;SDS011;40411;50.090;21.954;2022-07-23T07:01:42;16.90;;;9.30;;
54502;SDS011;40411;50.090;21.954;2022-07-23T07:04:08;14.40;;;9.55;;
54502;SDS011;40411;50.090;21.954;2022-07-23T07:06:34;14.20;;;9.57;;
54502;SDS011;40411;50.090;21.954;2022-07-23T07:09:00;18.33;;;9.73;;
54502;SDS011;40411;50.090;21.954;2022-07-23T07:11:26;16.40;;;8.18;;
54502;SDS011;40411;50.090;21.954;2022-07-23T07:13:52;15.23;;;8.88;;
54502;SDS011;40411;50.090;21.954;2022-07-23T07:16:18;18.20;;;9.30;;
54502;SDS011;40411;50.090;21.954;2022-07-23T07:18:44;15.98;;;9.15;;
54502;SDS011;40411;50.090;21.954;2022-07-23T07:21:10;17.52;;;9.00;;
54502;SDS011;40411;50.090;21.954;2022-07-23T07:23:35;12.48;;;8.68;;
54502;SDS011;40411;50.090;21.954;2022-07-23T07:26:01;14.70;;;9.00;;
54502;SDS011;40411;50.090;21.954;2022-07-23T07:28:27;15.10;;;9.00;;
54502;SDS011;40411;50.090;21.954;2022-07-23T07:30:53;14.90;;;8.88;;
54502;SDS011;40411;50.090;21.954;2022-07-23T07:33:19;15.93;;;9.57;;
54502;SDS011;40411;50.090;21.954;2022-07-23T07:35:46;15.73;;;9.30;;
54502;SDS011;40411;50.090;21.954;2022-07-23T07:38:12;13.77;;;9.02;;
54502;SDS011;40411;50.090;21.954;2022-07-23T07:40:38;15.13;;;9.65;;
54502;SDS011;40411;50.090;21.954;2022-07-23T07:43:04;12.40;;;8.88;;
54502;SDS011;40411;50.090;21.954;2022-07-23T07:45:30;11.30;;;8.45;;
54502;SDS011;40411;50.090;21.954;2022-07-23T07:47:56;21.80;;;9.95;;
54502;SDS011;40411;50.090;21.954;2022-07-23T07:50:22;11.90;;;8.88;;
54502;SDS011;40411;50.090;21.954;2022-07-23T07:52:49;14.52;;;8.52;;
54502;SDS011;40411;50.090;21.954;2022-07-23T07:55:14;16.65;;;8.50;;
54502;SDS011;40411;50.090;21.954;2022-07-23T07:57:41;13.65;;;8.45;;
54502;SDS011;40411;50.090;21.954;2022-07-23T08:00:08;15.60;;;8.50;;
54502;SDS011;40411;50.090;21.954;2022-07-23T08:02:45;14.65;;;8.63;;
54502;SDS011;40411;50.090;21.954;2022-07-23T08:05:13;13.98;;;7.55;;
54502;SDS011;40411;50.090;21.954;2022-07-23T08:07:40;11.98;;;8.02;;
54502;SDS011;40411;50.090;21.954;2022-07-23T08:10:07;16.15;;;9.23;;
54502;SDS011;40411;50.090;21.954;2022-07-23T08:13:07;17.13;;;8.43;;
54502;SDS011;40411;50.090;21.954;2022-07-23T08:15:27;20.58;;;8.30;;
54502;SDS011;40411;50.090;21.954;2022-07-23T08:17:54;17.92;;;8.48;;
54502;SDS011;40411;50.090;21.954;2022-07-23T08:20:21;11.85;;;7.65;;
54502;SDS011;40411;50.090;21.954;2022-07-23T08:25:21;15.25;;;8.65;;
54502;SDS011;40411;50.090;21.954;2022-07-23T08:27:48;13.55;;;8.57;;
54502;SDS011;40411;50.090;21.954;2022-07-23T08:30:14;16.85;;;8.48;;
54502;SDS011;40411;50.090;21.954;2022-07-23T08:32:49;20.33;;;9.07;;
54502;SDS011;40411;50.090;21.954;2022-07-23T08:35:26;13.32;;;7.90;;
54502;SDS011;40411;50.090;21.954;2022-07-23T08:37:52;19.48;;;8.23;;
54502;SDS011;40411;50.090;21.954;2022-07-23T08:40:19;17.52;;;7.45;;
54502;SDS011;40411;50.090;21.954;2022-07-23T08:42:49;12.00;;;7.53;;
54502;SDS011;40411;50.090;21.954;2022-07-23T08:45:17;16.17;;;7.45;;
54502;SDS011;40411;50.090;21.954;2022-07-23T08:47:49;12.38;;;7.80;;
54502;SDS011;40411;50.090;21.954;2022-07-23T08:50:20;13.23;;;7.75;;
54502;SDS011;40411;50.090;21.954;2022-07-23T08:52:47;10.63;;;7.70;;
54502;SDS011;40411;50.090;21.954;2022-07-23T08:55:15;14.70;;;7.38;;
54502;SDS011;40411;50.090;21.954;2022-07-23T08:57:43;10.93;;;7.15;;
54502;SDS011;40411;50.090;21.954;2022-07-23T09:00:09;15.88;;;6.80;;
54502;SDS011;40411;50.090;21.954;2022-07-23T09:02:41;12.27;;;6.53;;
54502;SDS011;40411;50.090;21.954;2022-07-23T09:05:08;17.02;;;7.00;;
54502;SDS011;40411;50.090;21.954;2022-07-23T09:07:37;9.30;;;6.07;;
54502;SDS011;40411;50.090;21.954;2022-07-23T09:10:05;18.92;;;5.40;;
54502;SDS011;40411;50.090;21.954;2022-07-23T09:12:36;7.78;;;5.13;;
54502;SDS011;40411;50.090;21.954;2022-07-23T09:15:06;12.68;;;6.00;;
54502;SDS011;40411;50.090;21.954;2022-07-23T09:17:38;8.98;;;5.53;;
54502;SDS011;40411;50.090;21.954;2022-07-23T09:20:12;14.13;;;5.65;;
54502;SDS011;40411;50.090;21.954;2022-07-23T09:22:44;10.63;;;5.55;;
54502;SDS011;40411;50.090;21.954;2022-07-23T09:25:15;10.80;;;5.00;;
54502;SDS011;40411;50.090;21.954;2022-07-23T09:32:41;10.18;;;5.63;;
54502;SDS011;40411;50.090;21.954;2022-07-23T09:35:07;9.02;;;5.50;;
54502;SDS011;40411;50.090;21.954;2022-07-23T09:37:34;12.40;;;5.82;;
54502;SDS011;40411;50.090;21.954;2022-07-23T09:40:04;7.75;;;5.45;;
54502;SDS011;40411;50.090;21.954;2022-07-23T09:42:35;9.63;;;5.72;;
54502;SDS011;40411;50.090;21.954;2022-07-23T09:45:01;9.35;;;5.80;;
54502;SDS011;40411;50.090;21.954;2022-07-23T09:47:28;10.23;;;5.72;;
54502;SDS011;40411;50.090;21.954;2022-07-23T09:52:26;15.02;;;5.93;;
54502;SDS011;40411;50.090;21.954;2022-07-23T09:54:57;11.98;;;6.07;;
54502;SDS011;40411;50.090;21.954;2022-07-23T09:57:28;12.50;;;6.30;;
54502;SDS011;40411;50.090;21.954;2022-07-23T09:59:53;13.93;;;6.13;;
54502;SDS011;40411;50.090;21.954;2022-07-23T10:02:23;10.90;;;5.95;;
54502;SDS011;40411;50.090;21.954;2022-07-23T10:05:10;9.13;;;5.85;;
54502;SDS011;40411;50.090;21.954;2022-07-23T10:07:56;11.35;;;6.25;;
54502;SDS011;40411;50.090;21.954;2022-07-23T10:10:47;11.45;;;6.82;;
54502;SDS011;40411;50.090;21.954;2022-07-23T10:13:47;9.63;;;6.20;;
54502;SDS011;40411;50.090;21.954;2022-07-23T10:16:28;12.52;;;6.70;;
54502;SDS011;40411;50.090;21.954;2022-07-23T10:18:54;10.02;;;6.03;;
54502;SDS011;40411;50.090;21.954;2022-07-23T10:24:55;11.55;;;6.30;;
54502;SDS011;40411;50.090;21.954;2022-07-23T10:29:52;8.88;;;6.25;;
54502;SDS011;40411;50.090;21.954;2022-07-23T10:38:24;14.75;;;6.60;;
54502;SDS011;40411;50.090;21.954;2022-07-23T10:41:03;7.90;;;6.35;;
54502;SDS011;40411;50.090;21.954;2022-07-23T10:43:30;14.35;;;6.57;;
54502;SDS011;40411;50.090;21.954;2022-07-23T10:49:31;12.02;;;7.00;;
54502;SDS011;40411;50.090;21.954;2022-07-23T11:02:47;13.68;;;7.15;;
54502;SDS011;40411;50.090;21.954;2022-07-23T11:05:43;12.88;;;6.35;;
54502;SDS011;40411;50.090;21.954;2022-07-23T11:24:08;13.75;;;6.45;;
54502;SDS011;40411;50.090;21.954;2022-07-23T11:34:31;10.45;;;6.03;;
54502;SDS011;40411;50.090;21.954;2022-07-23T11:37:05;12.73;;;6.30;;
54502;SDS011;40411;50.090;21.954;2022-07-23T11:39:33;11.57;;;5.65;;
54502;SDS011;40411;50.090;21.954;2022-07-23T11:42:00;8.13;;;5.45;;
54502;SDS011;40411;50.090;21.954;2022-07-23T11:44:31;9.77;;;5.95;;
54502;SDS011;40411;50.090;21.954;2022-07-23T11:46:59;9.05;;;5.90;;
54502;SDS011;40411;50.090;21.954;2022-07-23T11:49:29;12.70;;;6.07;;
54502;SDS011;40411;50.090;21.954;2022-07-23T11:54:58;8.13;;;5.90;;
54502;SDS011;40411;50.090;21.954;2022-07-23T11:59:58;8.88;;;5.68;;
54502;SDS011;40411;50.090;21.954;2022-07-23T12:02:38;7.65;;;5.65;;
54502;SDS011;40411;50.090;21.954;2022-07-23T12:05:05;13.07;;;5.93;;
54502;SDS011;40411;50.090;21.954;2022-07-23T12:10:15;13.77;;;5.80;;
54502;SDS011;40411;50.090;21.954;2022-07-23T12:12:47;7.72;;;5.93;;
54502;SDS011;40411;50.090;21.954;2022-07-23T12:15:15;12.32;;;5.57;;
54502;SDS011;40411;50.090;21.954;2022-07-23T12:17:44;14.63;;;5.60;;
54502;SDS011;40411;50.090;21.954;2022-07-23T12:20:15;8.40;;;5.97;;
54502;SDS011;40411;50.090;21.954;2022-07-23T12:22:44;9.82;;;5.97;;
54502;SDS011;40411;50.090;21.954;2022-07-23T12:25:13;7.43;;;5.32;;
54502;SDS011;40411;50.090;21.954;2022-07-23T12:27:41;9.43;;;5.32;;
54502;SDS011;40411;50.090;21.954;2022-07-23T12:32:49;11.23;;;5.22;;
54502;SDS011;40411;50.090;21.954;2022-07-23T12:35:17;7.80;;;5.38;;
54502;SDS011;40411;50.090;21.954;2022-07-23T12:37:44;8.50;;;5.45;;
54502;SDS011;40411;50.090;21.954;2022-07-23T12:40:31;9.00;;;5.82;;
54502;SDS011;40411;50.090;21.954;2022-07-23T12:43:00;10.38;;;5.45;;
54502;SDS011;40411;50.090;21.954;2022-07-23T12:48:28;9.15;;;5.72;;
54502;SDS011;40411;50.090;21.954;2022-07-23T12:53:41;13.10;;;6.15;;
54502;SDS011;40411;50.090;21.954;2022-07-23T12:56:10;9.60;;;6.13;;
54502;SDS011;40411;50.090;21.954;2022-07-23T12:58:40;8.85;;;5.88;;
54502;SDS011;40411;50.090;21.954;2022-07-23T13:01:07;13.50;;;5.78;;
54502;SDS011;40411;50.090;21.954;2022-07-23T13:03:35;10.52;;;6.07;;
54502;SDS011;40411;50.090;21.954;2022-07-23T13:06:03;12.55;;;5.93;;
54502;SDS011;40411;50.090;21.954;2022-07-23T13:08:32;13.43;;;5.93;;
54502;SDS011;40411;50.090;21.954;2022-07-23T13:11:00;8.40;;;5.65;;
54502;SDS011;40411;50.090;21.954;2022-07-23T13:13:28;8.55;;;5.55;;
54502;SDS011;40411;50.090;21.954;2022-07-23T13:15:56;7.97;;;5.60;;
54502;SDS011;40411;50.090;21.954;2022-07-23T13:18:22;8.80;;;6.05;;
54502;SDS011;40411;50.090;21.954;2022-07-23T13:20:50;9.20;;;5.85;;
54502;SDS011;40411;50.090;21.954;2022-07-23T13:23:17;10.65;;;5.70;;
54502;SDS011;40411;50.090;21.954;2022-07-23T13:25:43;9.35;;;5.68;;
54502;SDS011;40411;50.090;21.954;2022-07-23T13:28:10;7.38;;;5.30;;
54502;SDS011;40411;50.090;21.954;2022-07-23T13:30:36;9.63;;;5.53;;
54502;SDS011;40411;50.090;21.954;2022-07-23T13:33:03;8.90;;;5.45;;
54502;SDS011;40411;50.090;21.954;2022-07-23T13:35:30;9.95;;;6.43;;
54502;SDS011;40411;50.090;21.954;2022-07-23T13:37:56;6.68;;;4.93;;
54502;SDS011;40411;50.090;21.954;2022-07-23T13:40:22;9.75;;;5.90;;
54502;SDS011;40411;50.090;21.954;2022-07-23T13:42:48;9.55;;;5.25;;
54502;SDS011;40411;50.090;21.954;2022-07-23T13:45:14;9.18;;;5.10;;
54502;SDS011;40411;50.090;21.954;2022-07-23T13:47:40;8.68;;;5.03;;
54502;SDS011;40411;50.090;21.954;2022-07-23T13:50:07;10.52;;;5.20;;
54502;SDS011;40411;50.090;21.954;2022-07-23T13:52:32;8.57;;;5.45;;
54502;SDS011;40411;50.090;21.954;2022-07-23T13:55:03;10.73;;;5.40;;
54502;SDS011;40411;50.090;21.954;2022-07-23T13:57:31;7.70;;;5.40;;
54502;SDS011;40411;50.090;21.954;2022-07-23T13:59:57;11.38;;;4.93;;
54502;SDS011;40411;50.090;21.954;2022-07-23T14:02:23;8.85;;;5.38;;
54502;SDS011;40411;50.090;21.954;2022-07-23T14:04:50;109.80;;;11.35;;
54502;SDS011;40411;50.090;21.954;2022-07-23T14:07:17;8.85;;;5.30;;
54502;SDS011;40411;50.090;21.954;2022-07-23T14:09:43;8.77;;;5.38;;
54502;SDS011;40411;50.090;21.954;2022-07-23T14:12:09;9.35;;;5.85;;
54502;SDS011;40411;50.090;21.954;2022-07-23T14:14:36;10.18;;;5.15;;
54502;SDS011;40411;50.090;21.954;2022-07-23T14:17:01;10.50;;;5.28;;
54502;SDS011;40411;50.090;21.954;2022-07-23T14:19:28;10.32;;;5.90;;
54502;SDS011;40411;50.090;21.954;2022-07-23T14:21:54;10.50;;;5.10;;
54502;SDS011;40411;50.090;21.954;2022-07-23T14:24:20;11.90;;;5.43;;
54502;SDS011;40411;50.090;21.954;2022-07-23T14:26:46;10.65;;;5.32;;
54502;SDS011;40411;50.090;21.954;2022-07-23T14:29:12;9.70;;;5.60;;
54502;SDS011;40411;50.090;21.954;2022-07-23T14:31:38;8.57;;;5.43;;
54502;SDS011;40411;50.090;21.954;2022-07-23T14:34:04;13.32;;;6.13;;
54502;SDS011;40411;50.090;21.954;2022-07-23T14:36:30;7.88;;;5.50;;
54502;SDS011;40411;50.090;21.954;2022-07-23T14:38:56;8.90;;;5.40;;
54502;SDS011;40411;50.090;21.954;2022-07-23T14:41:22;11.63;;;5.85;;
54502;SDS011;40411;50.090;21.954;2022-07-23T14:43:48;13.77;;;5.72;;
54502;SDS011;40411;50.090;21.954;2022-07-23T14:46:14;11.52;;;5.60;;
54502;SDS011;40411;50.090;21.954;2022-07-23T14:48:40;11.00;;;5.90;;
54502;SDS011;40411;50.090;21.954;2022-07-23T14:51:06;11.27;;;6.05;;
54502;SDS011;40411;50.090;21.954;2022-07-23T14:53:32;9.32;;;5.65;;
54502;SDS011;40411;50.090;21.954;2022-07-23T14:55:58;14.55;;;6.00;;
54502;SDS011;40411;50.090;21.954;2022-07-23T14:58:24;10.02;;;5.68;;
54502;SDS011;40411;50.090;21.954;2022-07-23T15:00:50;10.27;;;5.55;;
54502;SDS011;40411;50.090;21.954;2022-07-23T15:03:18;13.80;;;6.35;;
54502;SDS011;40411;50.090;21.954;2022-07-23T15:05:44;12.63;;;6.05;;
54502;SDS011;40411;50.090;21.954;2022-07-23T15:08:09;7.32;;;5.25;;
54502;SDS011;40411;50.090;21.954;2022-07-23T15:10:35;8.85;;;5.72;;
54502;SDS011;40411;50.090;21.954;2022-07-23T15:13:01;10.63;;;5.95;;
54502;SDS011;40411;50.090;21.954;2022-07-23T15:15:27;10.43;;;5.78;;
54502;SDS011;40411;50.090;21.954;2022-07-23T15:17:53;9.85;;;5.95;;
54502;SDS011;40411;50.090;21.954;2022-07-23T15:20:19;10.63;;;6.80;;
54502;SDS011;40411;50.090;21.954;2022-07-23T15:22:45;11.90;;;6.05;;
54502;SDS011;40411;50.090;21.954;2022-07-23T15:25:13;14.05;;;6.63;;
54502;SDS011;40411;50.090;21.954;2022-07-23T15:27:39;10.93;;;5.93;;
54502;SDS011;40411;50.090;21.954;2022-07-23T15:30:06;10.75;;;6.30;;
54502;SDS011;40411;50.090;21.954;2022-07-23T15:32:32;8.35;;;5.78;;
54502;SDS011;40411;50.090;21.954;2022-07-23T15:34:58;11.85;;;6.20;;
54502;SDS011;40411;50.090;21.954;2022-07-23T15:37:24;12.73;;;6.40;;
54502;SDS011;40411;50.090;21.954;2022-07-23T15:39:50;8.55;;;5.97;;